sensor_id;sensor_type;location;lat;lon;timestamp;pressure;altitude;pressure_sealevel;temperature;humidity
19128;BME280;9696;53.686;10.094;2023-02-11T00:01:47;102617.09;;;5.01;100.00
19128;BME280;9696;53.686;10.094;2023-02-11T00:04:16;102608.44;;;5.00;100.00
19128;BME280;9696;53.686;10.094;2023-02-11T00:06:45;102609.28;;;5.01;100.00
19128;BME280;9696;53.686;10.094;2023-02-11T00:09:14;102605.84;;;5.00;100.00
19128;BME280;9696;53.686;10.094;2023-02-11T00:11:45;102611.03;;;5.00;100.00
19128;BME280;9696;53.686;10.094;2023-02-11T00:14:14;102606.94;;;4.93;100.00
19128;BME280;9696;53.686;10.094;2023-02-11T00:16:43;102608.88;;;4.87;100.00
19128;BME280;9696;53.686;10.094;2023-02-11T00:19:12;102620.34;;;4.81;100.00
19128;BME280;9696;53.686;10.094;2023-02-11T00:21:41;102613.47;;;4.79;100.00
19128;BME280;9696;53.686;10.094;2023-02-11T00:24:10;102616.16;;;4.77;100.00
19128;BME280;9696;53.686;10.094;2023-02-11T00:26:39;102613.53;;;4.77;100.00
19128;BME280;9696;53.686;10.094;2023-02-11T00:29:10;102613.53;;;4.77;100.00
19128;BME280;9696;53.686;10.094;2023-02-11T00:31:40;102605.75;;;4.77;100.00
19128;BME280;9696;53.686;10.094;2023-02-11T00:34:09;102615.41;;;4.73;100.00
19128;BME280;9696;53.686;10.094;2023-02-11T00:36:39;102607.63;;;4.72;100.00
19128;BME280;9696;53.686;10.094;2023-02-11T00:39:08;102595.47;;;4.74;100.00
19128;BME280;9696;53.686;10.094;2023-02-11T00:41:37;102588.41;;;4.78;100.00
19128;BME280;9696;53.686;10.094;2023-02-11T00:44:06;102590.25;;;4.74;100.00
19128;BME280;9696;53.686;10.094;2023-02-11T00:46:37;102590.25;;;4.74;100.00
19128;BME280;9696;53.686;10.094;2023-02-11T00:49:06;102594.53;;;4.75;100.00
19128;BME280;9696;53.686;10.094;2023-02-11T00:51:35;102576.31;;;4.77;100.00
19128;BME280;9696;53.686;10.094;2023-02-11T00:54:04;102572.00;;;4.75;100.00
19128;BME280;9696;53.686;10.094;2023-02-11T00:56:34;102565.94;;;4.75;100.00
19128;BME280;9696;53.686;10.094;2023-02-11T00:59:03;102549.50;;;4.74;100.00
19128;BME280;9696;53.686;10.094;2023-02-11T01:01:32;102557.16;;;4.79;100.00
19128;BME280;9696;53.686;10.094;2023-02-11T01:04:04;102560.63;;;4.78;100.00
19128;BME280;9696;53.686;10.094;2023-02-11T01:06:33;102563.19;;;4.80;100.00
19128;BME280;9696;53.686;10.094;2023-02-11T01:09:02;102567.63;;;4.78;100.00
19128;BME280;9696;53.686;10.094;2023-02-11T01:11:31;102559.75;;;4.79;100.00
19128;BME280;9696;53.686;10.094;2023-02-11T01:14:00;102558.09;;;4.77;100.00
19128;BME280;9696;53.686;10.094;2023-02-11T01:16:29;102546.72;;;4.81;100.00
19128;BME280;9696;53.686;10.094;2023-02-11T01:18:58;102546.81;;;4.78;100.00
19128;BME280;9696;53.686;10.094;2023-02-11T01:21:29;102538.94;;;4.79;100.00
19128;BME280;9696;53.686;10.094;2023-02-11T01:23:58;102534.56;;;4.81;100.00
19128;BME280;9696;53.686;10.094;2023-02-11T01:26:27;102531.88;;;4.83;100.00
19128;BME280;9696;53.686;10.094;2023-02-11T01:28:57;102530.22;;;4.82;100.00
19128;BME280;9696;53.686;10.094;2023-02-11T01:31:29;102528.34;;;4.85;100.00
19128;BME280;9696;53.686;10.094;2023-02-11T01:34:00;102529.28;;;4.83;100.00
19128;BME280;9696;53.686;10.094;2023-02-11T01:36:31;102534.41;;;4.86;100.00
19128;BME280;9696;53.686;10.094;2023-02-11T01:39:00;102535.22;;;4.86;100.00
19128;BME280;9696;53.686;10.094;2023-02-11T01:41:29;102523.91;;;4.89;100.00
19128;BME280;9696;53.686;10.094;2023-02-11T01:46:42;102528.13;;;4.91;100.00
19128;BME280;9696;53.686;10.094;2023-02-11T01:49:16;102519.31;;;4.95;100.00
19128;BME280;9696;53.686;10.094;2023-02-11T01:51:55;102515.84;;;4.96;100.00
19128;BME280;9696;53.686;10.094;2023-02-11T01:54:29;102510.53;;;4.99;100.00
19128;BME280;9696;53.686;10.094;2023-02-11T01:57:20;102507.88;;;5.01;100.00
19128;BME280;9696;53.686;10.094;2023-02-11T02:00:04;102506.91;;;5.03;100.00
19128;BME280;9696;53.686;10.094;2023-02-11T02:02:47;102512.81;;;5.08;100.00
19128;BME280;9696;53.686;10.094;2023-02-11T02:12:59;102508.31;;;5.13;100.00
19128;BME280;9696;53.686;10.094;2023-02-11T02:15:31;102508.34;;;5.12;100.00
19128;BME280;9696;53.686;10.094;2023-02-11T02:18:21;102499.50;;;5.17;100.00
19128;BME280;9696;53.686;10.094;2023-02-11T02:24:34;102487.25;;;5.19;100.00
19128;BME280;9696;53.686;10.094;2023-02-11T02:27:26;102487.31;;;5.18;100.00
19128;BME280;9696;53.686;10.094;2023-02-11T02:33:24;102470.66;;;5.23;100.00
19128;BME280;9696;53.686;10.094;2023-02-11T02:36:06;102469.75;;;5.25;100.00
19128;BME280;9696;53.686;10.094;2023-02-11T02:38:39;102477.56;;;5.25;100.00
19128;BME280;9696;53.686;10.094;2023-02-11T02:41:13;102477.44;;;5.28;100.00
19128;BME280;9696;53.686;10.094;2023-02-11T02:43:45;102466.97;;;5.29;100.00
19128;BME280;9696;53.686;10.094;2023-02-11T02:46:18;102470.31;;;5.33;100.00
19128;BME280;9696;53.686;10.094;2023-02-11T02:48:50;102472.91;;;5.33;100.00
19128;BME280;9696;53.686;10.094;2023-02-11T02:51:31;102488.53;;;5.33;100.00
19128;BME280;9696;53.686;10.094;2023-02-11T02:57:11;102472.19;;;5.52;100.00
19128;BME280;9696;53.686;10.094;2023-02-11T02:59:58;102475.28;;;5.62;100.00
19128;BME280;9696;53.686;10.094;2023-02-11T03:02:33;102477.25;;;5.55;100.00
19128;BME280;9696;53.686;10.094;2023-02-11T03:05:10;102475.44;;;5.57;100.00
19128;BME280;9696;53.686;10.094;2023-02-11T03:07:45;102468.47;;;5.58;100.00
19128;BME280;9696;53.686;10.094;2023-02-11T03:10:20;102458.03;;;5.59;100.00
19128;BME280;9696;53.686;10.094;2023-02-11T03:12:51;102459.00;;;5.57;100.00
19128;BME280;9696;53.686;10.094;2023-02-11T03:15:22;102457.34;;;5.54;100.00
19128;BME280;9696;53.686;10.094;2023-02-11T03:17:55;102462.50;;;5.56;100.00
19128;BME280;9696;53.686;10.094;2023-02-11T03:20:29;102455.41;;;5.59;100.00
19128;BME280;9696;53.686;10.094;2023-02-11T03:23:06;102451.19;;;5.57;100.00
19128;BME280;9696;53.686;10.094;2023-02-11T03:25:39;102449.38;;;5.59;100.00
19128;BME280;9696;53.686;10.094;2023-02-11T03:28:14;102448.50;;;5.58;100.00
19128;BME280;9696;53.686;10.094;2023-02-11T03:30:51;102438.91;;;5.60;100.00
19128;BME280;9696;53.686;10.094;2023-02-11T03:33:26;102438.66;;;5.66;100.00
19128;BME280;9696;53.686;10.094;2023-02-11T03:36:01;102435.06;;;5.69;100.00
19128;BME280;9696;53.686;10.094;2023-02-11T03:38:33;102425.50;;;5.69;100.00
19128;BME280;9696;53.686;10.094;2023-02-11T03:41:05;102420.31;;;5.69;100.00
19128;BME280;9696;53.686;10.094;2023-02-11T03:43:39;102429.09;;;5.67;100.00
19128;BME280;9696;53.686;10.094;2023-02-11T03:46:10;102430.72;;;5.69;100.00
19128;BME280;9696;53.686;10.094;2023-02-11T03:48:43;102419.22;;;5.75;100.00
19128;BME280;9696;53.686;10.094;2023-02-11T03:51:16;102423.63;;;5.73;100.00
19128;BME280;9696;53.686;10.094;2023-02-11T03:53:49;102422.88;;;5.71;100.00
19128;BME280;9696;53.686;10.094;2023-02-11T03:56:22;102418.50;;;5.72;100.00
19128;BME280;9696;53.686;10.094;2023-02-11T03:58:54;102406.97;;;5.77;100.00
19128;BME280;9696;53.686;10.094;2023-02-11T04:01:23;102413.13;;;5.76;100.00
19128;BME280;9696;53.686;10.094;2023-02-11T04:03:52;102411.16;;;5.81;100.00
19128;BME280;9696;53.686;10.094;2023-02-11T04:06:23;102426.59;;;5.86;100.00
19128;BME280;9696;53.686;10.094;2023-02-11T04:08:52;102429.97;;;5.89;100.00
19128;BME280;9696;53.686;10.094;2023-02-11T04:11:21;102427.50;;;5.86;100.00
19128;BME280;9696;53.686;10.094;2023-02-11T04:13:50;102433.44;;;5.90;100.00
19128;BME280;9696;53.686;10.094;2023-02-11T04:16:19;102440.28;;;5.92;100.00
19128;BME280;9696;53.686;10.094;2023-02-11T04:18:49;102443.00;;;5.89;100.00
19128;BME280;9696;53.686;10.094;2023-02-11T04:21:18;102439.47;;;5.90;100.00
19128;BME280;9696;53.686;10.094;2023-02-11T04:23:48;102447.06;;;5.96;100.00
19128;BME280;9696;53.686;10.094;2023-02-11T04:26:17;102442.47;;;6.03;100.00
19128;BME280;9696;53.686;10.094;2023-02-11T04:28:46;102439.00;;;6.02;100.00
19128;BME280;9696;53.686;10.094;2023-02-11T04:31:15;102445.84;;;6.05;100.00
19128;BME280;9696;53.686;10.094;2023-02-11T04:33:45;102436.97;;;6.09;100.00
19128;BME280;9696;53.686;10.094;2023-02-11T04:36:14;102453.66;;;6.05;100.00
19128;BME280;9696;53.686;10.094;2023-02-11T04:38:43;102452.69;;;6.07;100.00
19128;BME280;9696;53.686;10.094;2023-02-11T04:41:13;102435.09;;;6.12;100.00
19128;BME280;9696;53.686;10.094;2023-02-11T04:43:43;102432.56;;;6.11;100.00
19128;BME280;9696;53.686;10.094;2023-02-11T04:46:12;102439.41;;;6.13;100.00
19128;BME280;9696;53.686;10.094;2023-02-11T04:48:41;102438.56;;;6.13;100.00
19128;BME280;9696;53.686;10.094;2023-02-11T04:51:10;102437.78;;;6.11;100.00
19128;BME280;9696;53.686;10.094;2023-02-11T04:53:40;102456.75;;;6.14;100.00
19128;BME280;9696;53.686;10.094;2023-02-11T04:56:09;102435.06;;;6.14;100.00
19128;BME280;9696;53.686;10.094;2023-02-11T04:58:39;102439.41;;;6.13;100.00
19128;BME280;9696;53.686;10.094;2023-02-11T05:01:10;102431.91;;;6.06;100.00
19128;BME280;9696;53.686;10.094;2023-02-11T05:03:40;102449.25;;;6.07;100.00
19128;BME280;9696;53.686;10.094;2023-02-11T05:06:10;102458.75;;;6.08;100.00
19128;BME280;9696;53.686;10.094;2023-02-11T05:08:39;102455.41;;;6.04;100.00
19128;BME280;9696;53.686;10.094;2023-02-11T05:11:15;102453.91;;;5.99;100.00
19128;BME280;9696;53.686;10.094;2023-02-11T05:13:46;102464.38;;;5.97;100.00
19128;BME280;9696;53.686;10.094;2023-02-11T05:16:15;102459.97;;;5.99;100.00
19128;BME280;9696;53.686;10.094;2023-02-11T05:18:45;102455.72;;;5.97;100.00
19128;BME280;9696;53.686;10.094;2023-02-11T05:21:18;102453.91;;;5.99;100.00
19128;BME280;9696;53.686;10.094;2023-02-11T05:23:47;102444.47;;;5.96;100.00
19128;BME280;9696;53.686;10.094;2023-02-11T05:26:17;102441.00;;;5.96;100.00
19128;BME280;9696;53.686;10.094;2023-02-11T05:28:47;102435.69;;;5.99;100.00
19128;BME280;9696;53.686;10.094;2023-02-11T05:31:16;102419.19;;;5.98;100.00
19128;BME280;9696;53.686;10.094;2023-02-11T05:33:46;102431.31;;;5.99;100.00
19128;BME280;9696;53.686;10.094;2023-02-11T05:36:15;102435.63;;;6.00;100.00
19128;BME280;9696;53.686;10.094;2023-02-11T05:38:44;102422.59;;;6.00;100.00
19128;BME280;9696;53.686;10.094;2023-02-11T05:41:13;102405.28;;;5.99;100.00
19128;BME280;9696;53.686;10.094;2023-02-11T05:43:42;102396.75;;;5.96;100.00
19128;BME280;9696;53.686;10.094;2023-02-11T05:46:13;102401.88;;;5.97;100.00
19128;BME280;9696;53.686;10.094;2023-02-11T05:48:42;102402.66;;;5.99;100.00
19128;BME280;9696;53.686;10.094;2023-02-11T05:51:11;102400.13;;;5.98;100.00
19128;BME280;9696;53.686;10.094;2023-02-11T05:53:40;102401.81;;;5.99;100.00
19128;BME280;9696;53.686;10.094;2023-02-11T05:56:10;102412.19;;;6.00;100.00
19128;BME280;9696;53.686;10.094;2023-02-11T05:58:39;102402.47;;;6.04;100.00
19128;BME280;9696;53.686;10.094;2023-02-11T06:01:08;102412.69;;;6.08;100.00
19128;BME280;9696;53.686;10.094;2023-02-11T06:03:38;102394.41;;;6.10;100.00
19128;BME280;9696;53.686;10.094;2023-02-11T06:06:10;102389.31;;;6.07;100.00
19128;BME280;9696;53.686;10.094;2023-02-11T06:08:39;102390.75;;;6.14;100.00
19128;BME280;9696;53.686;10.094;2023-02-11T06:11:08;102385.59;;;6.12;100.00
19128;BME280;9696;53.686;10.094;2023-02-11T06:13:37;102391.66;;;6.13;100.00
19128;BME280;9696;53.686;10.094;2023-02-11T06:16:07;102400.16;;;6.18;100.00
19128;BME280;9696;53.686;10.094;2023-02-11T06:18:37;102407.91;;;6.20;100.00
19128;BME280;9696;53.686;10.094;2023-02-11T06:21:07;102420.84;;;6.21;100.00
19128;BME280;9696;53.686;10.094;2023-02-11T06:23:36;102424.13;;;6.26;100.00
19128;BME280;9696;53.686;10.094;2023-02-11T06:26:16;102417.03;;;6.30;100.00
19128;BME280;9696;53.686;10.094;2023-02-11T06:28:45;102436.06;;;6.32;100.00
19128;BME280;9696;53.686;10.094;2023-02-11T06:31:15;102422.91;;;6.35;100.00
19128;BME280;9696;53.686;10.094;2023-02-11T06:33:46;102425.66;;;6.32;100.00
19128;BME280;9696;53.686;10.094;2023-02-11T06:36:19;102444.66;;;6.34;100.00
19128;BME280;9696;53.686;10.094;2023-02-11T06:38:48;102434.19;;;6.35;100.00
19128;BME280;9696;53.686;10.094;2023-02-11T06:41:18;102439.56;;;6.31;100.00
19128;BME280;9696;53.686;10.094;2023-02-11T06:43:48;102442.09;;;6.32;100.00
19128;BME280;9696;53.686;10.094;2023-02-11T06:46:17;102429.03;;;6.34;100.00
19128;BME280;9696;53.686;10.094;2023-02-11T06:48:47;102449.88;;;6.34;100.00
19128;BME280;9696;53.686;10.094;2023-02-11T06:51:17;102442.94;;;6.33;100.00
19128;BME280;9696;53.686;10.094;2023-02-11T06:53:46;102453.38;;;6.33;100.00
19128;BME280;9696;53.686;10.094;2023-02-11T06:56:17;102457.63;;;6.35;100.00
19128;BME280;9696;53.686;10.094;2023-02-11T06:58:47;102461.00;;;6.37;100.00
19128;BME280;9696;53.686;10.094;2023-02-11T07:01:16;102459.25;;;6.38;100.00
19128;BME280;9696;53.686;10.094;2023-02-11T07:03:46;102463.56;;;6.39;100.00
19128;BME280;9696;53.686;10.094;2023-02-11T07:06:18;102459.31;;;6.36;100.00
19128;BME280;9696;53.686;10.094;2023-02-11T07:08:47;102461.00;;;6.37;100.00
19128;BME280;9696;53.686;10.094;2023-02-11T07:11:19;102462.06;;;6.33;100.00
19128;BME280;9696;53.686;10.094;2023-02-11T07:13:51;102467.06;;;6.38;100.00
19128;BME280;9696;53.686;10.094;2023-02-11T07:16:21;102467.06;;;6.38;100.00
19128;BME280;9696;53.686;10.094;2023-02-11T07:18:51;102468.78;;;6.39;100.00
19128;BME280;9696;53.686;10.094;2023-02-11T07:21:21;102462.59;;;6.41;100.00
19128;BME280;9696;53.686;10.094;2023-02-11T07:23:51;102460.09;;;6.38;100.00
19128;BME280;9696;53.686;10.094;2023-02-11T07:26:22;102454.94;;;6.37;100.00
19128;BME280;9696;53.686;10.094;2023-02-11T07:28:52;102453.91;;;6.41;100.00
19128;BME280;9696;53.686;10.094;2023-02-11T07:31:24;102462.44;;;6.44;100.00
19128;BME280;9696;53.686;10.094;2023-02-11T07:33:57;102458.03;;;6.46;100.00
19128;BME280;9696;53.686;10.094;2023-02-11T07:36:28;102466.84;;;6.44;100.00
19128;BME280;9696;53.686;10.094;2023-02-11T07:38:59;102471.19;;;6.43;100.00
19128;BME280;9696;53.686;10.094;2023-02-11T07:41:28;102483.19;;;6.47;100.00
19128;BME280;9696;53.686;10.094;2023-02-11T07:43:57;102493.53;;;6.49;100.00
19128;BME280;9696;53.686;10.094;2023-02-11T07:46:27;102512.69;;;6.48;100.00
19128;BME280;9696;53.686;10.094;2023-02-11T07:48:57;102509.25;;;6.47;100.00
19128;BME280;9696;53.686;10.094;2023-02-11T07:51:28;102521.25;;;6.51;100.00
19128;BME280;9696;53.686;10.094;2023-02-11T07:53:58;102509.97;;;6.51;100.00
19128;BME280;9696;53.686;10.094;2023-02-11T07:56:29;102528.78;;;6.59;100.00
19128;BME280;9696;53.686;10.094;2023-02-11T07:59:00;102506.91;;;6.61;100.00
19128;BME280;9696;53.686;10.094;2023-02-11T08:01:30;102515.53;;;6.63;100.00
19128;BME280;9696;53.686;10.094;2023-02-11T08:04:02;102515.53;;;6.63;100.00
19128;BME280;9696;53.686;10.094;2023-02-11T08:06:32;102516.38;;;6.64;100.00
19128;BME280;9696;53.686;10.094;2023-02-11T08:09:07;102529.34;;;6.66;100.00
19128;BME280;9696;53.686;10.094;2023-02-11T08:11:37;102529.31;;;6.67;100.00
19128;BME280;9696;53.686;10.094;2023-02-11T08:14:06;102524.94;;;6.68;100.00
19128;BME280;9696;53.686;10.094;2023-02-11T08:16:36;102523.94;;;6.70;100.00
19128;BME280;9696;53.686;10.094;2023-02-11T08:19:09;102533.53;;;6.70;100.00
19128;BME280;9696;53.686;10.094;2023-02-11T08:21:39;102535.16;;;6.72;100.00
19128;BME280;9696;53.686;10.094;2023-02-11T08:24:09;102539.50;;;6.72;100.00
19128;BME280;9696;53.686;10.094;2023-02-11T08:26:38;102556.81;;;6.74;100.00
19128;BME280;9696;53.686;10.094;2023-02-11T08:29:10;102557.53;;;6.78;100.00
19128;BME280;9696;53.686;10.094;2023-02-11T08:31:41;102553.94;;;6.80;100.00
19128;BME280;9696;53.686;10.094;2023-02-11T08:34:13;102570.44;;;6.81;100.00
19128;BME280;9696;53.686;10.094;2023-02-11T08:36:47;102558.19;;;6.83;100.00
19128;BME280;9696;53.686;10.094;2023-02-11T08:39:18;102550.44;;;6.81;100.00
19128;BME280;9696;53.686;10.094;2023-02-11T08:41:48;102568.63;;;6.83;100.00
19128;BME280;9696;53.686;10.094;2023-02-11T08:44:18;102577.34;;;6.82;100.00
19128;BME280;9696;53.686;10.094;2023-02-11T08:46:48;102576.38;;;6.84;100.00
19128;BME280;9696;53.686;10.094;2023-02-11T08:49:19;102561.56;;;6.85;100.00
19128;BME280;9696;53.686;10.094;2023-02-11T08:51:49;102576.47;;;6.83;100.00
19128;BME280;9696;53.686;10.094;2023-02-11T08:54:19;102571.16;;;6.84;100.00
19128;BME280;9696;53.686;10.094;2023-02-11T08:56:50;102576.31;;;6.86;100.00
19128;BME280;9696;53.686;10.094;2023-02-11T08:59:19;102569.41;;;6.85;100.00
19128;BME280;9696;53.686;10.094;2023-02-11T09:01:48;102569.41;;;6.85;100.00
19128;BME280;9696;53.686;10.094;2023-02-11T09:04:19;102572.16;;;6.82;100.00
19128;BME280;9696;53.686;10.094;2023-02-11T09:06:48;102565.00;;;6.87;100.00
19128;BME280;9696;53.686;10.094;2023-02-11T09:09:17;102557.22;;;6.85;100.00
19128;BME280;9696;53.686;10.094;2023-02-11T09:11:46;102554.56;;;6.87;100.00
19128;BME280;9696;53.686;10.094;2023-02-11T09:14:18;102554.47;;;6.88;100.00
19128;BME280;9696;53.686;10.094;2023-02-11T09:16:48;102560.41;;;6.92;100.00
19128;BME280;9696;53.686;10.094;2023-02-11T09:19:19;102568.91;;;6.97;100.00
19128;BME280;9696;53.686;10.094;2023-02-11T09:21:49;102571.63;;;6.94;100.00
19128;BME280;9696;53.686;10.094;2023-02-11T09:24:19;102568.03;;;6.96;100.00
19128;BME280;9696;53.686;10.094;2023-02-11T09:26:48;102581.09;;;6.96;100.00
19128;BME280;9696;53.686;10.094;2023-02-11T09:29:17;102598.19;;;7.03;100.00
19128;BME280;9696;53.686;10.094;2023-02-11T09:31:46;102604.38;;;7.01;100.00
19128;BME280;9696;53.686;10.094;2023-02-11T09:34:16;102592.13;;;7.03;100.00
19128;BME280;9696;53.686;10.094;2023-02-11T09:36:47;102584.34;;;7.01;100.00
19128;BME280;9696;53.686;10.094;2023-02-11T09:39:17;102588.59;;;7.04;100.00
19128;BME280;9696;53.686;10.094;2023-02-11T09:42:01;102579.66;;;7.09;100.00
19128;BME280;9696;53.686;10.094;2023-02-11T09:44:37;102578.06;;;7.07;100.00
19128;BME280;9696;53.686;10.094;2023-02-11T09:47:20;102589.31;;;7.07;100.00
19128;BME280;9696;53.686;10.094;2023-02-11T09:49:55;102579.63;;;7.11;100.00
19128;BME280;9696;53.686;10.094;2023-02-11T09:52:35;102592.66;;;7.11;100.00
19128;BME280;9696;53.686;10.094;2023-02-11T09:55:14;102607.34;;;7.14;100.00
19128;BME280;9696;53.686;10.094;2023-02-11T09:57:45;102602.16;;;7.12;100.00
19128;BME280;9696;53.686;10.094;2023-02-11T10:00:21;102597.81;;;7.13;100.00
19128;BME280;9696;53.686;10.094;2023-02-11T10:03:00;102603.59;;;7.19;100.00
19128;BME280;9696;53.686;10.094;2023-02-11T10:05:41;102599.22;;;7.20;100.00
19128;BME280;9696;53.686;10.094;2023-02-11T10:08:22;102607.16;;;7.18;100.00
19128;BME280;9696;53.686;10.094;2023-02-11T10:11:00;102611.38;;;7.21;100.00
19128;BME280;9696;53.686;10.094;2023-02-11T10:13:43;102616.47;;;7.24;100.00
19128;BME280;9696;53.686;10.094;2023-02-11T10:16:28;102612.19;;;7.23;100.00
19128;BME280;9696;53.686;10.094;2023-02-11T10:19:14;102612.88;;;7.26;100.00
19128;BME280;9696;53.686;10.094;2023-02-11T10:21:55;102623.38;;;7.25;100.00
19128;BME280;9696;53.686;10.094;2023-02-11T10:24:27;102629.31;;;7.28;100.00
19128;BME280;9696;53.686;10.094;2023-02-11T10:26:57;102635.19;;;7.33;100.00
19128;BME280;9696;53.686;10.094;2023-02-11T10:29:34;102628.47;;;7.28;100.00
19128;BME280;9696;53.686;10.094;2023-02-11T10:32:11;102633.59;;;7.31;100.00
19128;BME280;9696;53.686;10.094;2023-02-11T10:34:43;102625.84;;;7.28;100.00
19128;BME280;9696;53.686;10.094;2023-02-11T10:37:13;102631.59;;;7.36;100.00
19128;BME280;9696;53.686;10.094;2023-02-11T10:39:43;102616.84;;;7.35;100.00
19128;BME280;9696;53.686;10.094;2023-02-11T10:42:13;102605.31;;;7.40;100.00
19128;BME280;9696;53.686;10.094;2023-02-11T10:44:48;102610.19;;;7.48;100.00
19128;BME280;9696;53.686;10.094;2023-02-11T10:47:24;102603.53;;;7.41;100.00
19128;BME280;9696;53.686;10.094;2023-02-11T10:49:55;102599.09;;;7.43;100.00
19128;BME280;9696;53.686;10.094;2023-02-11T10:52:30;102610.13;;;7.49;100.00
19128;BME280;9696;53.686;10.094;2023-02-11T10:55:04;102600.75;;;7.45;100.00
19128;BME280;9696;53.686;10.094;2023-02-11T10:57:36;102605.06;;;7.46;100.00
19128;BME280;9696;53.686;10.094;2023-02-11T11:00:32;102603.00;;;7.53;100.00
19128;BME280;9696;53.686;10.094;2023-02-11T11:03:05;102597.66;;;7.56;100.00
19128;BME280;9696;53.686;10.094;2023-02-11T11:05:46;102599.41;;;7.55;100.00
19128;BME280;9696;53.686;10.094;2023-02-11T11:08:16;102594.19;;;7.55;100.00
19128;BME280;9696;53.686;10.094;2023-02-11T11:10:59;102597.09;;;7.49;100.00
19128;BME280;9696;53.686;10.094;2023-02-11T11:13:32;102602.63;;;7.42;100.00
19128;BME280;9696;53.686;10.094;2023-02-11T11:16:22;102600.13;;;7.39;100.00
19128;BME280;9696;53.686;10.094;2023-02-11T11:18:53;102617.50;;;7.40;100.00
19128;BME280;9696;53.686;10.094;2023-02-11T11:21:43;102625.09;;;7.46;100.00
19128;BME280;9696;53.686;10.094;2023-02-11T11:24:17;102620.78;;;7.45;100.00
19128;BME280;9696;53.686;10.094;2023-02-11T11:26:52;102610.06;;;7.51;100.00
19128;BME280;9696;53.686;10.094;2023-02-11T11:29:28;102604.19;;;7.46;100.00
19128;BME280;9696;53.686;10.094;2023-02-11T11:32:00;102612.03;;;7.46;100.00
19128;BME280;9696;53.686;10.094;2023-02-11T11:34:34;102615.22;;;7.52;100.00
19128;BME280;9696;53.686;10.094;2023-02-11T11:37:10;102613.72;;;7.47;100.00
19128;BME280;9696;53.686;10.094;2023-02-11T11:39:41;102618.72;;;7.51;100.00
19128;BME280;9696;53.686;10.094;2023-02-11T11:42:25;102635.44;;;7.47;100.00
19128;BME280;9696;53.686;10.094;2023-02-11T11:45:00;102645.25;;;7.42;100.00
19128;BME280;9696;53.686;10.094;2023-02-11T11:47:38;102650.41;;;7.44;100.00
19128;BME280;9696;53.686;10.094;2023-02-11T11:50:26;102664.25;;;7.46;100.00
19128;BME280;9696;53.686;10.094;2023-02-11T11:53:00;102657.31;;;7.45;100.00
19128;BME280;9696;53.686;10.094;2023-02-11T11:55:36;102651.13;;;7.47;100.00
19128;BME280;9696;53.686;10.094;2023-02-11T11:58:14;102647.59;;;7.48;100.00
19128;BME280;9696;53.686;10.094;2023-02-11T12:00:55;102644.94;;;7.50;100.00
19128;BME280;9696;53.686;10.094;2023-02-11T12:06:43;102656.81;;;7.57;100.00
19128;BME280;9696;53.686;10.094;2023-02-11T12:09:22;102660.28;;;7.57;100.00
19128;BME280;9696;53.686;10.094;2023-02-11T12:12:18;102675.84;;;7.59;100.00
19128;BME280;9696;53.686;10.094;2023-02-11T12:15:03;102678.28;;;7.64;100.00
19128;BME280;9696;53.686;10.094;2023-02-11T12:17:51;102661.19;;;7.56;100.00
19128;BME280;9696;53.686;10.094;2023-02-11T12:20:31;102661.03;;;7.59;100.00
19128;BME280;9696;53.686;10.094;2023-02-11T12:23:18;102669.78;;;7.58;100.00
19128;BME280;9696;53.686;10.094;2023-02-11T12:25:55;102650.78;;;7.55;100.00
19128;BME280;9696;53.686;10.094;2023-02-11T12:28:34;102651.63;;;7.55;100.00
19128;BME280;9696;53.686;10.094;2023-02-11T12:31:16;102652.09;;;7.65;100.00
19128;BME280;9696;53.686;10.094;2023-02-11T12:34:16;102652.00;;;7.67;100.00
19128;BME280;9696;53.686;10.094;2023-02-11T12:36:59;102643.97;;;7.71;100.00
19128;BME280;9696;53.686;10.094;2023-02-11T12:39:39;102645.63;;;7.74;100.00
19128;BME280;9696;53.686;10.094;2023-02-11T12:48:36;102651.63;;;7.76;100.00
19128;BME280;9696;53.686;10.094;2023-02-11T12:51:14;102650.84;;;7.74;100.00
19128;BME280;9696;53.686;10.094;2023-02-11T12:54:13;102653.19;;;7.80;100.00
19128;BME280;9696;53.686;10.094;2023-02-11T12:56:48;102663.69;;;7.78;100.00
19128;BME280;9696;53.686;10.094;2023-02-11T12:59:27;102670.56;;;7.81;100.00
19128;BME280;9696;53.686;10.094;2023-02-11T13:02:00;102663.13;;;7.72;100.00
19128;BME280;9696;53.686;10.094;2023-02-11T13:04:38;102673.44;;;7.75;100.00
19128;BME280;9696;53.686;10.094;2023-02-11T13:07:13;102669.59;;;7.63;100.00
19128;BME280;9696;53.686;10.094;2023-02-11T13:09:47;102665.81;;;7.70;100.00
19128;BME280;9696;53.686;10.094;2023-02-11T13:12:19;102667.50;;;7.71;100.00
19128;BME280;9696;53.686;10.094;2023-02-11T13:15:11;102667.56;;;7.70;100.00
19128;BME280;9696;53.686;10.094;2023-02-11T13:17:47;102677.09;;;7.71;100.00
19128;BME280;9696;53.686;10.094;2023-02-11T13:20:29;102657.00;;;7.73;100.00
19128;BME280;9696;53.686;10.094;2023-02-11T13:23:11;102651.31;;;7.63;100.00
19128;BME280;9696;53.686;10.094;2023-02-11T13:25:47;102653.81;;;7.66;100.00
19128;BME280;9696;53.686;10.094;2023-02-11T13:28:28;102656.34;;;7.68;100.00
19128;BME280;9696;53.686;10.094;2023-02-11T13:31:01;102657.03;;;7.71;100.00
19128;BME280;9696;53.686;10.094;2023-02-11T13:33:35;102646.78;;;7.67;100.00
19128;BME280;9696;53.686;10.094;2023-02-11T13:36:19;102657.97;;;7.70;100.00
19128;BME280;9696;53.686;10.094;2023-02-11T13:39:16;102650.72;;;7.77;100.00
19128;BME280;9696;53.686;10.094;2023-02-11T13:41:47;102649.91;;;7.75;100.00
19128;BME280;9696;53.686;10.094;2023-02-11T13:44:25;102653.25;;;7.78;100.00
19128;BME280;9696;53.686;10.094;2023-02-11T13:46:58;102654.03;;;7.80;100.00
19128;BME280;9696;53.686;10.094;2023-02-11T13:49:37;102674.88;;;7.82;100.00
19128;BME280;9696;53.686;10.094;2023-02-11T13:52:22;102665.25;;;7.82;100.00